Terminal Aerodrome Forecast
Issued by NWS

Home | Current Version | Previous Version | Text Only | Print | Product List | Glossary On
Versions: 1 2 3 4 5 6 7 8 9 10 11 12 13
788
FTUS42 KTAE 231120
TAFDHN
TAF
KDHN 231120Z 2312/2412 08009KT P6SM FEW025 SCT100
      TEMPO 2312/2315 BKN025
     FM231500 08009KT P6SM BKN025
     FM232200 08009KT P6SM BKN030
     FM240100 08007KT P6SM BKN040=

USA.gov is the U.S. government's official web portal to all federal, state and local government web resources and services.